createdAt,value
2022-10-30T00:01:01.702Z,3.90
2022-10-30T00:05:58.131Z,3.88
2022-10-30T00:10:54.566Z,5.15
2022-10-30T00:15:52.610Z,4.22
2022-10-30T00:25:45.995Z,4.93
2022-10-30T00:30:42.354Z,3.90
2022-10-30T00:35:38.774Z,3.58
2022-10-30T00:40:35.115Z,3.90
2022-10-30T00:45:31.472Z,3.80
2022-10-30T00:50:32.443Z,4.45
2022-10-30T00:55:34.934Z,4.18
2022-10-30T01:00:31.734Z,3.60
2022-10-30T01:05:30.476Z,4.18
2022-10-30T01:10:26.890Z,4.78
2022-10-30T01:15:40.396Z,3.75
2022-10-30T01:20:42.767Z,3.40
2022-10-30T01:25:44.928Z,4.20
2022-10-30T01:31:09.311Z,3.40
2022-10-30T01:36:20.654Z,5.00
2022-10-30T01:41:17.058Z,3.50
2022-10-30T01:46:37.600Z,3.60
2022-10-30T01:51:40.071Z,3.67
2022-10-30T01:56:36.339Z,4.43
2022-10-30T02:01:35.560Z,3.58
2022-10-30T02:06:32.040Z,3.67
2022-10-30T02:11:29.662Z,4.15
2022-10-30T02:16:27.268Z,3.85
2022-10-30T02:21:23.660Z,5.00
2022-10-30T02:26:20.056Z,4.03
2022-10-30T02:31:16.443Z,4.00
2022-10-30T02:36:15.365Z,3.92
2022-10-30T02:41:12.077Z,4.85
2022-10-30T02:46:08.522Z,4.35
2022-10-30T02:51:05.368Z,3.50
2022-10-30T02:56:10.330Z,4.97
2022-10-30T03:06:25.879Z,4.35
2022-10-30T03:11:22.319Z,4.53
2022-10-30T03:16:21.781Z,4.50
2022-10-30T03:21:21.353Z,5.00
2022-10-30T03:26:18.946Z,4.82
2022-10-30T03:31:18.111Z,3.75
2022-10-30T03:36:15.331Z,4.25
2022-10-30T03:41:11.706Z,4.60
2022-10-30T03:46:09.752Z,4.25
2022-10-30T03:51:06.383Z,4.38
2022-10-30T03:56:04.719Z,4.72
2022-10-30T04:01:05.635Z,3.60
2022-10-30T04:06:02.748Z,4.75
2022-10-30T04:10:59.257Z,4.57
2022-10-30T04:15:58.323Z,4.35
2022-10-30T04:20:55.797Z,5.13
2022-10-30T04:25:52.174Z,4.37
2022-10-30T04:30:49.046Z,3.97
2022-10-30T04:35:45.429Z,4.15
2022-10-30T04:40:45.565Z,5.22
2022-10-30T04:45:42.538Z,4.03
2022-10-30T04:50:39.046Z,4.05
2022-10-30T04:55:35.477Z,4.28
2022-10-30T05:00:32.071Z,4.53
2022-10-30T05:05:29.894Z,4.32
2022-10-30T05:10:26.301Z,3.95
2022-10-30T05:15:22.726Z,4.07
2022-10-30T05:20:19.752Z,3.95
2022-10-30T05:25:16.252Z,4.35
2022-10-30T05:30:12.776Z,4.80
2022-10-30T05:35:09.191Z,4.40
2022-10-30T05:40:06.354Z,4.43
2022-10-30T05:45:02.975Z,4.47
2022-10-30T05:49:59.374Z,4.90
2022-10-30T05:54:55.848Z,3.55
2022-10-30T05:59:52.209Z,3.67
2022-10-30T06:04:48.570Z,3.58
2022-10-30T06:09:44.971Z,3.90
2022-10-30T06:14:41.330Z,4.07
2022-10-30T06:19:37.666Z,3.75
2022-10-30T06:24:34.028Z,3.55
2022-10-30T06:29:30.395Z,4.05
2022-10-30T06:34:27.203Z,4.85
2022-10-30T06:39:23.588Z,3.92
2022-10-30T06:44:20.112Z,4.50
2022-10-30T06:49:16.467Z,4.20
2022-10-30T06:54:12.872Z,4.65
2022-10-30T06:59:10.643Z,5.90
2022-10-30T07:04:06.987Z,4.53
2022-10-30T07:09:03.481Z,4.47
2022-10-30T07:14:00.129Z,3.95
2022-10-30T07:18:59.345Z,4.03
2022-10-30T07:23:58.720Z,4.68
2022-10-30T07:28:55.136Z,4.13
2022-10-30T07:33:51.493Z,4.55
2022-10-30T07:38:48.829Z,4.47
2022-10-30T07:43:46.136Z,5.43
2022-10-30T07:48:42.495Z,5.60
2022-10-30T07:53:38.829Z,5.03
2022-10-30T07:58:35.217Z,3.85
2022-10-30T08:03:31.621Z,4.22
2022-10-30T08:08:28.011Z,3.42
2022-10-30T08:13:24.475Z,4.05
2022-10-30T08:18:20.890Z,4.80
2022-10-30T08:23:19.686Z,4.28
2022-10-30T08:28:16.080Z,4.38
2022-10-30T08:33:16.371Z,4.28
2022-10-30T08:38:12.752Z,4.35
2022-10-30T08:43:09.458Z,4.18
2022-10-30T08:48:06.559Z,3.95
2022-10-30T08:53:08.305Z,3.33
2022-10-30T08:58:04.952Z,3.53
2022-10-30T09:03:02.100Z,3.55
2022-10-30T09:08:01.691Z,3.22
2022-10-30T09:13:01.803Z,3.80
2022-10-30T09:18:00.491Z,3.80
2022-10-30T09:22:57.748Z,4.55
2022-10-30T09:27:54.559Z,3.38
2022-10-30T09:32:55.315Z,3.58
2022-10-30T09:37:51.992Z,3.22
2022-10-30T09:42:50.520Z,3.38
2022-10-30T09:48:08.105Z,3.15
2022-10-30T09:58:22.846Z,3.85
2022-10-30T10:04:20.947Z,2.70
2022-10-30T10:09:23.633Z,2.92
2022-10-30T10:14:32.514Z,3.10
2022-10-30T10:19:55.524Z,2.83
2022-10-30T10:24:54.352Z,2.67
2022-10-30T10:30:01.455Z,3.15
2022-10-30T10:35:03.712Z,3.85
2022-10-30T10:40:18.208Z,3.40
2022-10-30T10:45:33.490Z,3.40
2022-10-30T10:50:33.964Z,3.15
2022-10-30T10:55:36.695Z,3.05
2022-10-30T11:00:33.518Z,3.25
2022-10-30T11:05:41.775Z,3.37
2022-10-30T11:10:38.307Z,3.28
2022-10-30T11:15:49.819Z,2.75
2022-10-30T11:21:00.419Z,2.88
2022-10-30T11:25:56.816Z,2.88
2022-10-30T11:31:22.282Z,4.28
2022-10-30T11:36:23.435Z,3.08
2022-10-30T11:41:20.775Z,3.00
2022-10-30T11:46:23.346Z,2.97
2022-10-30T11:51:31.693Z,3.65
2022-10-30T11:56:34.253Z,2.63
2022-10-30T12:01:34.788Z,2.65
2022-10-30T12:06:31.235Z,2.92
2022-10-30T12:11:32.595Z,2.78
2022-10-30T12:16:30.360Z,3.75
2022-10-30T12:21:29.591Z,2.97
2022-10-30T12:26:26.507Z,3.08
2022-10-30T12:31:46.606Z,3.47
2022-10-30T12:36:52.185Z,3.75
2022-10-30T12:41:56.906Z,2.75
2022-10-30T12:46:53.281Z,3.00
2022-10-30T12:51:51.830Z,2.63
2022-10-30T12:56:54.331Z,2.83
2022-10-30T13:02:04.726Z,3.05
2022-10-30T13:07:36.974Z,2.78
2022-10-30T13:12:38.673Z,4.10
2022-10-30T13:17:35.062Z,2.65
2022-10-30T13:22:57.106Z,3.13
2022-10-30T13:27:56.697Z,3.55
2022-10-30T13:33:00.713Z,2.58
2022-10-30T13:38:21.852Z,2.95
2022-10-30T13:43:43.180Z,2.50
2022-10-30T13:48:58.157Z,2.95
2022-10-30T13:54:03.401Z,2.10
2022-10-30T13:59:21.218Z,2.95
2022-10-30T14:04:33.710Z,2.40
2022-10-30T14:09:35.447Z,2.95
2022-10-30T14:14:32.003Z,2.80
2022-10-30T14:19:28.363Z,2.23
2022-10-30T14:24:29.144Z,2.75
2022-10-30T14:29:34.751Z,2.00
2022-10-30T14:34:50.153Z,2.45
2022-10-30T14:39:47.130Z,2.78
2022-10-30T14:44:43.438Z,2.75
2022-10-30T14:49:59.589Z,1.70
2022-10-30T14:55:18.820Z,3.08
2022-10-30T15:00:24.439Z,3.28
2022-10-30T15:05:51.362Z,3.42
2022-10-30T15:11:18.841Z,2.65
2022-10-30T15:21:23.074Z,3.42
2022-10-30T15:26:23.291Z,3.65
2022-10-30T15:31:25.906Z,3.00
2022-10-30T15:36:25.885Z,3.15
2022-10-30T15:41:22.260Z,3.00
2022-10-30T15:46:18.704Z,3.15
2022-10-30T15:51:20.983Z,3.38
2022-10-30T15:56:54.318Z,4.03
2022-10-30T16:01:58.197Z,3.83
2022-10-30T16:07:00.084Z,2.92
2022-10-30T16:11:59.469Z,4.35
2022-10-30T16:16:59.932Z,4.18
2022-10-30T16:21:58.551Z,4.22
2022-10-30T16:27:15.314Z,5.20
2022-10-30T16:32:18.991Z,4.40
2022-10-30T16:37:27.576Z,4.25
2022-10-30T16:42:25.983Z,4.10
2022-10-30T16:47:25.847Z,4.00
2022-10-30T16:52:30.756Z,5.65
2022-10-30T16:57:30.091Z,4.20
2022-10-30T17:02:30.520Z,4.18
2022-10-30T17:07:27.780Z,5.00
2022-10-30T17:12:26.494Z,4.50
2022-10-30T17:17:30.113Z,4.25
2022-10-30T17:22:27.520Z,5.40
2022-10-30T17:27:48.952Z,5.05
2022-10-30T17:32:45.414Z,4.20
2022-10-30T17:37:41.967Z,4.55
2022-10-30T17:42:38.957Z,5.03
2022-10-30T17:47:35.296Z,5.40
2022-10-30T17:52:33.016Z,5.50
2022-10-30T17:57:29.393Z,5.45
2022-10-30T18:02:25.917Z,5.05
2022-10-30T18:07:22.296Z,4.97
2022-10-30T18:12:19.238Z,4.82
2022-10-30T18:17:15.570Z,6.47
2022-10-30T18:22:13.795Z,5.68
2022-10-30T18:27:10.149Z,5.93
2022-10-30T18:32:09.688Z,5.35
2022-10-30T18:37:06.310Z,5.05
2022-10-30T18:42:02.679Z,5.50
2022-10-30T18:47:02.933Z,5.82
2022-10-30T18:51:59.808Z,6.18
2022-10-30T18:56:56.129Z,5.82
2022-10-30T19:01:52.636Z,5.60
2022-10-30T19:06:49.552Z,4.93
2022-10-30T19:11:45.892Z,4.90
2022-10-30T19:16:42.276Z,5.88
2022-10-30T19:21:38.725Z,5.90
2022-10-30T19:26:35.110Z,5.97
2022-10-30T19:31:31.487Z,5.93
2022-10-30T19:36:29.781Z,6.68
2022-10-30T19:41:26.527Z,6.85
2022-10-30T19:46:22.987Z,6.65
2022-10-30T19:51:19.440Z,6.18
2022-10-30T19:56:17.624Z,7.15
2022-10-30T20:06:12.984Z,6.43
2022-10-30T20:16:06.111Z,7.07
2022-10-30T20:21:05.495Z,7.57
2022-10-30T20:26:05.026Z,12.30
2022-10-30T20:31:01.841Z,11.45
2022-10-30T20:35:58.418Z,11.73
2022-10-30T20:40:55.363Z,10.45
2022-10-30T20:45:51.700Z,11.13
2022-10-30T20:50:50.784Z,9.70
2022-10-30T20:55:47.407Z,8.95
2022-10-30T21:00:43.858Z,9.68
2022-10-30T21:05:44.362Z,11.05
2022-10-30T21:10:42.266Z,9.00
2022-10-30T21:15:44.337Z,8.45
2022-10-30T21:20:43.467Z,9.38
2022-10-30T21:25:39.815Z,9.02
2022-10-30T21:30:36.184Z,10.05
2022-10-30T21:35:32.519Z,10.95
2022-10-30T21:40:28.842Z,9.40
2022-10-30T21:45:25.202Z,9.50
2022-10-30T21:50:21.538Z,9.93
2022-10-30T21:55:17.886Z,11.48
2022-10-30T22:00:15.006Z,9.93
2022-10-30T22:05:11.343Z,9.90
2022-10-30T22:10:08.229Z,9.27
2022-10-30T22:15:05.380Z,8.30
2022-10-30T22:20:01.793Z,10.80
2022-10-30T22:24:58.143Z,9.23
2022-10-30T22:29:54.498Z,9.07
2022-10-30T22:34:50.886Z,8.90
2022-10-30T22:39:47.262Z,8.48
2022-10-30T22:44:43.687Z,10.10
2022-10-30T22:49:40.075Z,7.80
2022-10-30T22:54:36.433Z,7.50
2022-10-30T22:59:32.845Z,9.20
2022-10-30T23:04:29.232Z,8.52
2022-10-30T23:09:25.628Z,8.60
2022-10-30T23:14:22.012Z,7.18
2022-10-30T23:19:18.408Z,6.68
2022-10-30T23:24:14.760Z,8.50
2022-10-30T23:29:11.146Z,8.48
2022-10-30T23:34:11.016Z,8.10
2022-10-30T23:39:11.241Z,9.13
2022-10-30T23:44:12.202Z,8.00
2022-10-30T23:49:08.655Z,8.73
2022-10-30T23:54:05.369Z,8.05
2022-10-30T23:59:01.825Z,9.27
